Time;durP1;ratioP1;P1;durP2;ratioP2;P2;SDS_P1;SDS_P2;PMS_P1;PMS_P2;Temp;Humidity;BMP_temperature;BMP_pressure;BME280_temperature;BME280_humidity;BME280_pressure;Samples;Min_cycle;Max_cycle;Signal;HPM_P1;HPM_P2
2023/05/13 00:02:22;;;;;;;3.60;3.00;;;17.20;88.20;;;;;;4967530;28;20549;-44
2023/05/13 00:04:51;;;;;;;3.43;3.13;;;17.20;86.90;;;;;;4968037;28;20559;-45
2023/05/13 00:07:21;;;;;;;6.40;3.57;;;17.20;87.10;;;;;;4965012;28;21095;-45
2023/05/13 00:09:50;;;;;;;3.03;2.83;;;17.20;87.00;;;;;;4967592;28;20455;-44
2023/05/13 00:12:19;;;;;;;3.60;3.30;;;17.20;86.90;;;;;;4982490;28;20501;-45
2023/05/13 00:14:48;;;;;;;4.50;3.67;;;17.20;86.90;;;;;;4967410;28;20497;-45
2023/05/13 00:17:16;;;;;;;5.10;3.30;;;17.20;86.90;;;;;;4971478;28;20474;-46
2023/05/13 00:19:45;;;;;;;4.20;3.60;;;17.20;87.00;;;;;;4971850;28;20450;-45
2023/05/13 00:22:14;;;;;;;3.70;2.77;;;17.20;86.80;;;;;;4965866;28;20853;-44
2023/05/13 00:24:44;;;;;;;4.83;3.73;;;17.20;86.80;;;;;;4972066;28;20558;-44
2023/05/13 00:27:12;;;;;;;4.23;3.70;;;17.20;86.80;;;;;;4985270;28;20545;-45
2023/05/13 00:29:41;;;;;;;3.97;3.67;;;17.20;86.80;;;;;;4967842;28;20486;-44
2023/05/13 00:32:10;;;;;;;3.83;3.53;;;17.20;86.80;;;;;;4971864;28;20849;-44
2023/05/13 00:34:38;;;;;;;4.00;3.60;;;17.20;86.80;;;;;;4969613;28;20435;-44
2023/05/13 00:37:09;;;;;;;3.67;3.37;;;17.20;87.00;;;;;;4970367;28;20467;-44
2023/05/13 00:39:38;;;;;;;4.10;3.43;;;17.20;87.00;;;;;;4985918;28;20443;-45
2023/05/13 00:42:10;;;;;;;3.70;3.40;;;17.20;86.90;;;;;;4971343;28;20490;-45
2023/05/13 00:44:39;;;;;;;3.77;3.47;;;17.20;87.00;;;;;;4971853;28;20466;-45
2023/05/13 00:47:11;;;;;;;3.77;3.47;;;17.10;87.10;;;;;;4971422;28;20845;-44
2023/05/13 00:49:40;;;;;;;3.33;3.03;;;17.10;87.10;;;;;;4971884;28;20477;-46
2023/05/13 00:52:08;;;;;;;3.17;2.90;;;17.10;87.00;;;;;;4970125;28;21016;-44
2023/05/13 00:54:38;;;;;;;3.13;2.90;;;17.20;87.10;;;;;;4971499;28;20439;-45
2023/05/13 00:57:09;;;;;;;3.30;3.00;;;17.10;87.10;;;;;;4969223;28;20471;-45
2023/05/13 00:59:39;;;;;;;3.23;3.00;;;17.10;87.00;;;;;;4969313;28;20450;-45
2023/05/13 01:02:15;;;;;;;4.03;3.70;;;17.10;87.10;;;;;;4969975;28;21024;-45
2023/05/13 01:04:48;;;;;;;4.50;4.10;;;17.20;87.20;;;;;;4970382;28;20478;-45
2023/05/13 01:07:27;;;;;;;3.67;3.37;;;17.20;87.20;;;;;;4968843;28;20479;-45
2023/05/13 01:10:04;;;;;;;4.00;3.60;;;17.20;87.00;;;;;;4971088;28;20601;-45
2023/05/13 01:12:38;;;;;;;3.83;3.53;;;17.20;87.00;;;;;;4966652;28;20477;-45
2023/05/13 01:15:09;;;;;;;4.33;3.70;;;17.10;86.90;;;;;;4963838;28;20805;-45
2023/05/13 01:18:06;;;;;;;4.57;4.17;;;17.10;86.80;;;;;;4969590;28;20504;-45
2023/05/13 01:20:55;;;;;;;3.50;3.20;;;17.10;86.80;;;;;;4971122;28;20744;-45
2023/05/13 01:23:25;;;;;;;4.00;3.60;;;17.10;86.80;;;;;;4979055;28;20836;-45
2023/05/13 01:25:54;;;;;;;2.80;2.60;;;17.10;86.90;;;;;;4969500;28;20845;-44
2023/05/13 01:28:24;;;;;;;3.93;3.63;;;17.10;86.90;;;;;;4966321;28;20479;-45
2023/05/13 01:30:55;;;;;;;3.93;3.63;;;17.10;86.80;;;;;;4971007;28;20858;-45
2023/05/13 01:33:26;;;;;;;7.33;4.20;;;17.10;86.90;;;;;;4982720;28;20456;-44
2023/05/13 01:35:55;;;;;;;3.43;3.13;;;17.10;86.60;;;;;;4970430;28;20480;-45
2023/05/13 01:38:27;;;;;;;3.63;3.33;;;17.10;86.70;;;;;;4988282;28;20530;-45
2023/05/13 01:40:59;;;;;;;3.70;3.40;;;17.10;86.80;;;;;;4971305;28;20455;-45
2023/05/13 01:43:30;;;;;;;4.57;4.17;;;17.10;86.80;;;;;;4962319;28;20463;-45
2023/05/13 01:45:59;;;;;;;4.70;4.30;;;17.10;86.80;;;;;;4970492;28;20525;-45
2023/05/13 01:48:28;;;;;;;3.80;3.50;;;17.10;86.70;;;;;;4970100;28;20459;-45
2023/05/13 01:50:58;;;;;;;3.70;3.30;;;17.10;86.90;;;;;;4970776;28;20958;-45
2023/05/13 01:53:28;;;;;;;4.17;3.77;;;17.10;87.10;;;;;;4967285;28;20451;-45
2023/05/13 01:55:58;;;;;;;3.70;3.40;;;17.10;86.90;;;;;;4970339;28;20521;-45
2023/05/13 01:58:27;;;;;;;3.63;3.30;;;17.10;87.00;;;;;;4962932;28;20479;-45
2023/05/13 02:00:55;;;;;;;4.60;4.20;;;17.10;88.20;;;;;;4970809;28;20431;-45
2023/05/13 02:03:24;;;;;;;3.73;3.43;;;17.00;86.80;;;;;;4965867;28;20443;-45
2023/05/13 02:05:53;;;;;;;4.30;3.90;;;17.10;86.80;;;;;;4970154;28;20993;-45
2023/05/13 02:08:22;;;;;;;4.50;4.10;;;17.10;86.90;;;;;;4967575;28;20539;-45
2023/05/13 02:10:56;;;;;;;7.53;4.93;;;17.10;86.70;;;;;;4969586;28;20447;-45
2023/05/13 02:13:26;;;;;;;4.53;4.10;;;17.00;86.40;;;;;;4979241;28;20965;-45
2023/05/13 02:15:55;;;;;;;4.13;3.73;;;17.10;86.50;;;;;;4969309;28;20538;-45
2023/05/13 02:18:24;;;;;;;4.17;3.77;;;17.10;86.50;;;;;;4981253;28;20542;-45
2023/05/13 02:20:53;;;;;;;4.17;3.80;;;17.10;86.60;;;;;;4966141;28;20522;-44
2023/05/13 02:23:22;;;;;;;3.73;3.00;;;17.00;86.60;;;;;;4983257;28;20501;-45
2023/05/13 02:25:50;;;;;;;3.93;3.20;;;17.00;86.70;;;;;;4967047;28;20485;-44
2023/05/13 02:28:20;;;;;;;3.77;3.47;;;17.00;86.90;;;;;;4962930;28;20711;-45
2023/05/13 02:30:49;;;;;;;5.13;3.90;;;17.00;86.90;;;;;;4970072;28;20941;-44
2023/05/13 02:33:18;;;;;;;3.50;3.20;;;17.00;88.30;;;;;;4969203;28;20960;-45
2023/05/13 02:35:46;;;;;;;4.37;3.97;;;17.00;86.90;;;;;;4969503;28;20446;-44
2023/05/13 02:38:15;;;;;;;3.70;3.30;;;17.00;86.80;;;;;;4965442;28;20511;-45
2023/05/13 02:40:44;;;;;;;4.47;4.07;;;17.00;86.80;;;;;;4967120;28;20594;-45
2023/05/13 02:43:12;;;;;;;3.80;3.50;;;17.00;86.50;;;;;;4982131;28;20495;-45
2023/05/13 02:45:51;;;;;;;5.53;4.50;;;17.00;86.40;;;;;;4971868;28;20879;-45
2023/05/13 02:48:20;;;;;;;5.47;4.97;;;17.00;86.30;;;;;;4967885;28;20450;-44
2023/05/13 02:50:48;;;;;;;6.07;3.60;;;17.00;86.20;;;;;;4969077;28;20508;-45
2023/05/13 02:53:17;;;;;;;4.23;3.60;;;17.00;86.40;;;;;;4966979;28;20797;-45
2023/05/13 02:55:53;;;;;;;4.33;3.93;;;17.00;86.30;;;;;;4969489;28;20459;-44
2023/05/13 02:58:25;;;;;;;6.77;3.73;;;17.00;86.50;;;;;;4966254;28;20458;-45
2023/05/13 03:00:55;;;;;;;3.57;3.27;;;17.00;86.40;;;;;;4971720;28;20876;-46
2023/05/13 03:03:25;;;;;;;4.20;3.80;;;17.00;86.50;;;;;;4964490;28;20538;-45
2023/05/13 03:05:54;;;;;;;4.03;3.73;;;17.00;87.70;;;;;;4969087;28;20550;-45
2023/05/13 03:08:22;;;;;;;3.90;3.60;;;17.00;86.70;;;;;;4969260;28;20526;-45
2023/05/13 03:10:51;;;;;;;4.30;3.50;;;17.00;86.60;;;;;;4969606;28;20443;-45
2023/05/13 03:13:20;;;;;;;4.20;3.90;;;17.00;86.60;;;;;;4967610;28;20847;-45
2023/05/13 03:15:49;;;;;;;4.20;3.80;;;16.90;86.40;;;;;;4985212;28;21141;-45
2023/05/13 03:18:19;;;;;;;4.40;4.00;;;17.00;86.60;;;;;;4969632;28;20439;-45
2023/05/13 03:20:48;;;;;;;3.80;3.40;;;17.00;86.50;;;;;;4969838;28;20466;-45
2023/05/13 03:23:16;;;;;;;3.80;3.50;;;16.90;86.50;;;;;;4964593;28;20440;-45
2023/05/13 03:25:47;;;;;;;4.40;4.10;;;16.90;86.50;;;;;;4967697;28;20463;-45
2023/05/13 03:28:16;;;;;;;3.20;3.00;;;16.90;86.50;;;;;;4965138;28;20484;-44
2023/05/13 03:30:45;;;;;;;3.27;2.97;;;16.90;86.60;;;;;;4969833;28;20459;-47
2023/05/13 03:33:19;;;;;;;3.70;3.40;;;16.90;86.80;;;;;;4983761;28;20466;-45
2023/05/13 03:35:49;;;;;;;3.47;3.17;;;17.00;86.80;;;;;;4968553;28;20470;-44
2023/05/13 03:38:23;;;;;;;3.23;2.83;;;16.90;86.80;;;;;;4966877;28;20446;-45
2023/05/13 03:40:53;;;;;;;3.57;3.27;;;17.00;86.90;;;;;;4967950;28;20467;-45
2023/05/13 03:43:21;;;;;;;4.40;4.00;;;17.00;86.80;;;;;;4966639;28;21046;-44
2023/05/13 03:45:55;;;;;;;4.50;3.23;;;16.90;86.70;;;;;;4972079;28;20498;-44
2023/05/13 03:48:26;;;;;;;3.87;3.43;;;17.00;86.90;;;;;;4962614;28;20860;-45
2023/05/13 03:50:57;;;;;;;3.37;3.07;;;16.90;86.80;;;;;;4971434;28;20475;-45
2023/05/13 03:53:26;;;;;;;4.30;3.07;;;16.90;86.90;;;;;;4970467;28;20439;-45
2023/05/13 03:55:55;;;;;;;3.30;3.00;;;16.90;87.00;;;;;;4971494;28;20447;-45
2023/05/13 03:58:24;;;;;;;3.03;2.83;;;16.90;87.10;;;;;;4969099;28;20455;-44
2023/05/13 04:00:53;;;;;;;3.57;3.27;;;16.90;87.00;;;;;;4975567;28;20450;-44
2023/05/13 04:03:22;;;;;;;3.20;2.93;;;16.90;87.10;;;;;;4971292;28;20451;-44
2023/05/13 04:05:52;;;;;;;3.80;3.50;;;16.90;87.10;;;;;;4970064;28;20485;-44
2023/05/13 04:08:21;;;;;;;3.80;3.40;;;16.90;87.00;;;;;;4974340;28;20493;-45
2023/05/13 04:10:49;;;;;;;4.80;4.40;;;16.90;87.10;;;;;;4972466;28;20519;-45
2023/05/13 04:13:19;;;;;;;3.97;3.67;;;16.90;87.00;;;;;;4969565;28;20440;-45
2023/05/13 04:15:48;;;;;;;5.73;5.23;;;16.90;86.70;;;;;;4984235;28;20466;-45
2023/05/13 04:18:16;;;;;;;4.30;3.90;;;16.90;86.10;;;;;;4971779;28;20494;-44
2023/05/13 04:20:45;;;;;;;4.33;4.03;;;16.90;86.60;;;;;;4970293;28;20526;-44
2023/05/13 04:23:18;;;;;;;3.70;3.40;;;16.90;86.70;;;;;;4970347;28;20458;-45
2023/05/13 04:25:51;;;;;;;3.40;3.10;;;16.90;86.80;;;;;;4970117;28;20470;-45
2023/05/13 04:28:19;;;;;;;3.43;3.13;;;16.90;86.80;;;;;;4967294;28;20783;-45
2023/05/13 04:30:50;;;;;;;4.90;4.40;;;16.90;86.80;;;;;;4970701;28;20514;-45
2023/05/13 04:33:19;;;;;;;4.30;4.00;;;16.90;86.70;;;;;;4971333;28;20925;-45
2023/05/13 04:35:49;;;;;;;4.77;4.27;;;16.80;86.20;;;;;;4969242;28;20471;-45
2023/05/13 04:38:19;;;;;;;5.20;4.70;;;16.80;86.30;;;;;;4970562;28;20991;-44
2023/05/13 04:40:48;;;;;;;4.30;3.97;;;16.90;86.30;;;;;;4971706;28;20461;-44
2023/05/13 04:43:22;;;;;;;5.20;4.70;;;16.90;86.30;;;;;;4966933;28;20462;-44
2023/05/13 04:45:56;;;;;;;10.47;4.60;;;16.90;86.30;;;;;;4975525;28;20985;-45
2023/05/13 04:48:26;;;;;;;5.03;3.80;;;16.90;86.30;;;;;;4982175;28;20543;-45
2023/05/13 04:50:58;;;;;;;4.17;3.77;;;16.80;86.40;;;;;;4970557;28;20817;-45
2023/05/13 04:53:29;;;;;;;5.30;4.43;;;16.80;86.30;;;;;;4967451;28;20976;-45
2023/05/13 04:56:01;;;;;;;4.50;3.80;;;16.90;86.50;;;;;;4972250;28;20979;-45
2023/05/13 04:58:30;;;;;;;4.47;4.13;;;16.80;86.30;;;;;;4971443;28;20450;-45
2023/05/13 05:00:59;;;;;;;5.23;4.73;;;16.80;86.40;;;;;;4970724;28;20475;-45
2023/05/13 05:03:28;;;;;;;5.57;5.00;;;16.80;86.30;;;;;;4971720;28;20466;-45
2023/05/13 05:05:58;;;;;;;5.10;4.70;;;16.80;86.30;;;;;;4971274;28;20478;-45
2023/05/13 05:08:28;;;;;;;4.70;4.30;;;16.80;86.30;;;;;;4963634;28;20952;-46
2023/05/13 05:10:59;;;;;;;5.77;3.83;;;16.80;86.40;;;;;;4972037;28;20500;-44
2023/05/13 05:13:28;;;;;;;4.80;4.30;;;16.80;86.40;;;;;;4968018;28;20482;-44
2023/05/13 05:15:56;;;;;;;4.77;4.23;;;16.80;86.40;;;;;;4970663;28;20471;-45
2023/05/13 05:18:25;;;;;;;4.40;4.00;;;16.80;86.30;;;;;;4985153;28;20522;-44
2023/05/13 05:20:54;;;;;;;5.40;3.63;;;16.80;86.40;;;;;;4970227;28;21697;-45
2023/05/13 05:23:24;;;;;;;5.13;4.23;;;16.80;86.30;;;;;;4966248;28;20820;-45
2023/05/13 05:25:54;;;;;;;4.40;4.00;;;16.80;86.50;;;;;;4984013;28;20447;-45
2023/05/13 05:28:39;;;;;;;4.43;4.00;;;16.80;86.60;;;;;;4980738;28;20459;-45
2023/05/13 05:31:08;;;;;;;4.53;4.13;;;16.80;86.50;;;;;;4974530;28;20526;-45
2023/05/13 05:33:38;;;;;;;4.53;4.13;;;16.80;86.60;;;;;;4968844;28;20511;-45
2023/05/13 05:36:07;;;;;;;4.90;4.50;;;16.80;86.40;;;;;;4965986;28;20810;-44
2023/05/13 05:38:36;;;;;;;5.00;4.60;;;16.80;86.30;;;;;;4969460;28;20828;-45
2023/05/13 05:41:09;;;;;;;5.20;4.10;;;16.80;86.10;;;;;;4970677;28;20474;-44
2023/05/13 05:43:38;;;;;;;4.03;3.73;;;16.80;86.10;;;;;;4985538;28;20447;-44
2023/05/13 05:46:06;;;;;;;5.13;4.63;;;16.80;86.10;;;;;;4983007;28;20487;-45
2023/05/13 05:48:36;;;;;;;6.43;4.90;;;16.80;85.90;;;;;;4969692;28;20451;-45
2023/05/13 05:51:05;;;;;;;4.70;4.30;;;16.80;86.10;;;;;;4969615;28;20571;-45
2023/05/13 05:53:39;;;;;;;4.60;4.30;;;16.80;86.00;;;;;;4978381;28;20446;-45
2023/05/13 05:56:11;;;;;;;6.13;4.23;;;16.80;86.20;;;;;;4984793;28;20451;-45
2023/05/13 05:58:40;;;;;;;4.13;3.73;;;16.80;86.20;;;;;;4967928;28;20454;-45
2023/05/13 06:01:09;;;;;;;5.57;5.00;;;16.80;86.10;;;;;;4967935;28;20486;-45
2023/05/13 06:03:38;;;;;;;3.60;3.30;;;16.80;86.10;;;;;;4969639;28;20494;-45
2023/05/13 06:06:07;;;;;;;5.57;5.07;;;16.80;86.30;;;;;;4983924;28;20439;-43
2023/05/13 06:08:36;;;;;;;5.60;5.10;;;16.80;86.20;;;;;;4967401;28;20545;-45
2023/05/13 06:11:05;;;;;;;5.23;4.73;;;16.80;86.10;;;;;;4969970;28;20447;-44
2023/05/13 06:13:35;;;;;;;4.47;4.07;;;16.80;86.10;;;;;;4963250;28;20444;-44
2023/05/13 06:16:06;;;;;;;3.90;3.20;;;16.80;86.30;;;;;;4969103;28;20475;-45
2023/05/13 06:18:38;;;;;;;5.87;5.37;;;16.80;86.20;;;;;;4969783;28;20475;-46
2023/05/13 06:21:07;;;;;;;5.47;5.07;;;16.80;86.10;;;;;;4968800;28;20888;-45
2023/05/13 06:23:36;;;;;;;4.90;4.50;;;16.80;86.00;;;;;;4984245;28;20510;-45
2023/05/13 06:26:05;;;;;;;5.40;4.90;;;16.80;86.30;;;;;;4968482;28;20986;-45
2023/05/13 06:28:37;;;;;;;3.63;3.33;;;16.80;86.30;;;;;;4969299;28;20647;-43
2023/05/13 06:31:06;;;;;;;3.80;3.40;;;16.80;86.40;;;;;;4982949;28;20543;-45
2023/05/13 06:33:34;;;;;;;4.33;3.93;;;16.80;86.40;;;;;;4969046;28;20995;-45
2023/05/13 06:36:03;;;;;;;3.83;3.30;;;16.80;86.40;;;;;;4969039;28;20828;-45
2023/05/13 06:38:33;;;;;;;3.90;3.60;;;16.80;86.50;;;;;;4979597;28;20450;-45
2023/05/13 06:41:03;;;;;;;4.80;4.40;;;16.80;86.40;;;;;;4969174;28;20467;-45
2023/05/13 06:43:35;;;;;;;18.77;14.13;;;16.80;86.30;;;;;;4961323;28;20452;-44
2023/05/13 06:46:17;;;;;;;15.40;11.57;;;16.70;83.70;;;;;;4966293;28;20968;-45
2023/05/13 06:48:46;;;;;;;10.73;9.80;;;16.60;85.10;;;;;;4967549;28;20498;-45
2023/05/13 06:51:15;;;;;;;12.80;9.00;;;16.60;85.70;;;;;;4967398;28;20471;-45
2023/05/13 06:53:43;;;;;;;10.20;9.20;;;16.60;85.90;;;;;;4983550;28;20522;-45
2023/05/13 06:56:12;;;;;;;10.43;9.40;;;16.60;85.90;;;;;;4967331;28;20509;-44
2023/05/13 06:58:40;;;;;;;10.47;9.37;;;16.60;85.80;;;;;;4967122;28;20883;-45
2023/05/13 07:01:09;;;;;;;10.30;9.30;;;16.70;85.60;;;;;;4981264;28;20467;-45
2023/05/13 07:03:39;;;;;;;10.87;9.77;;;16.60;85.50;;;;;;4969854;28;20439;-45
2023/05/13 07:06:08;;;;;;;9.57;8.50;;;16.70;85.50;;;;;;4969925;28;20494;-45
2023/05/13 07:08:37;;;;;;;10.20;9.03;;;16.70;85.50;;;;;;4967180;28;20467;-45
2023/05/13 07:11:05;;;;;;;11.37;10.27;;;16.70;85.40;;;;;;4968893;28;20591;-45
2023/05/13 07:13:34;;;;;;;10.57;8.50;;;16.70;85.50;;;;;;4968904;28;20882;-44
2023/05/13 07:16:03;;;;;;;9.37;8.57;;;16.70;85.60;;;;;;4969104;28;20992;-45
2023/05/13 07:18:32;;;;;;;9.27;8.37;;;16.70;85.50;;;;;;4968605;28;20455;-44
2023/05/13 07:21:06;;;;;;;9.37;8.47;;;16.70;85.70;;;;;;4963308;28;20839;-45
2023/05/13 07:23:35;;;;;;;10.83;8.03;;;16.70;86.90;;;;;;4968553;28;20486;-44
2023/05/13 07:26:04;;;;;;;9.17;8.27;;;16.70;85.70;;;;;;4981058;28;20447;-44
2023/05/13 07:28:33;;;;;;;9.00;8.20;;;16.70;85.80;;;;;;4963112;28;20488;-44
2023/05/13 07:31:02;;;;;;;9.67;8.70;;;16.70;85.70;;;;;;4977518;28;20471;-44
2023/05/13 07:33:31;;;;;;;11.63;7.80;;;16.70;85.80;;;;;;4966055;28;20502;-44
2023/05/13 07:36:00;;;;;;;7.73;6.93;;;16.70;85.90;;;;;;4967626;28;21020;-44
2023/05/13 07:38:30;;;;;;;8.40;7.60;;;16.70;85.80;;;;;;4967760;28;20447;-44
2023/05/13 07:40:59;;;;;;;8.77;7.97;;;16.70;85.80;;;;;;4967468;28;21098;-45
2023/05/13 07:43:28;;;;;;;10.17;7.60;;;16.70;85.70;;;;;;4964966;28;20439;-45
2023/05/13 07:45:57;;;;;;;7.80;7.10;;;16.80;86.20;;;;;;4968219;28;20443;-44
2023/05/13 07:48:27;;;;;;;8.50;7.60;;;16.80;86.10;;;;;;4964271;28;20545;-44
2023/05/13 07:50:56;;;;;;;8.87;6.60;;;16.80;85.90;;;;;;4966782;28;20462;-44
2023/05/13 07:53:25;;;;;;;8.17;7.43;;;16.80;85.80;;;;;;4963682;28;20538;-43
2023/05/13 07:55:55;;;;;;;8.77;7.87;;;16.80;85.80;;;;;;4965648;28;20463;-44
2023/05/13 07:58:24;;;;;;;9.90;8.43;;;16.80;85.30;;;;;;4964299;28;20494;-44
2023/05/13 08:00:59;;;;;;;7.97;7.17;;;16.80;85.30;;;;;;4968169;28;20482;-44
2023/05/13 08:03:28;;;;;;;8.23;7.43;;;16.80;85.40;;;;;;4979176;28;20439;-44
2023/05/13 08:05:57;;;;;;;8.70;7.30;;;16.80;85.40;;;;;;4981421;28;20476;-44
2023/05/13 08:08:26;;;;;;;8.07;7.20;;;16.80;85.50;;;;;;4962894;28;20459;-43
2023/05/13 08:10:56;;;;;;;7.17;6.57;;;16.80;85.50;;;;;;4966702;28;20485;-44
2023/05/13 08:13:25;;;;;;;13.73;6.83;;;16.80;85.50;;;;;;4962435;28;20542;-45
2023/05/13 08:15:54;;;;;;;7.20;6.60;;;16.80;85.60;;;;;;4968367;28;20443;-44
2023/05/13 08:18:23;;;;;;;7.10;6.40;;;16.80;85.60;;;;;;4963686;28;20458;-45
2023/05/13 08:20:52;;;;;;;8.40;6.27;;;16.80;85.50;;;;;;4966158;28;21095;-45
2023/05/13 08:23:30;;;;;;;8.00;7.30;;;16.80;85.50;;;;;;4963668;28;20478;-45
2023/05/13 08:26:14;;;;;;;9.77;6.67;;;16.80;85.70;;;;;;4969680;28;20638;-45
2023/05/13 08:28:42;;;;;;;7.27;6.50;;;16.80;86.80;;;;;;4963737;28;20472;-45
2023/05/13 08:31:11;;;;;;;8.70;7.33;;;16.80;85.60;;;;;;4966479;28;20945;-45
2023/05/13 08:33:41;;;;;;;8.00;7.30;;;16.80;85.60;;;;;;4968112;28;20478;-45
2023/05/13 08:36:10;;;;;;;7.30;6.57;;;16.80;85.50;;;;;;4967172;28;20525;-45
2023/05/13 08:38:39;;;;;;;7.00;6.30;;;16.80;85.50;;;;;;4970283;28;20788;-45
2023/05/13 08:41:08;;;;;;;11.17;7.27;;;16.80;85.50;;;;;;4971075;28;20817;-45
2023/05/13 08:43:39;;;;;;;7.70;6.90;;;16.80;85.50;;;;;;4968903;28;20885;-45
2023/05/13 08:46:10;;;;;;;7.60;6.40;;;16.80;85.40;;;;;;4969965;28;20538;-45
2023/05/13 08:48:43;;;;;;;7.53;6.87;;;16.80;85.50;;;;;;4972898;28;20461;-45
2023/05/13 08:51:12;;;;;;;7.13;6.53;;;16.80;85.70;;;;;;4967889;28;20533;-44
2023/05/13 08:53:41;;;;;;;6.40;5.87;;;16.80;85.50;;;;;;4970065;28;20459;-44
2023/05/13 08:56:10;;;;;;;7.40;6.67;;;16.80;85.60;;;;;;4966797;28;20960;-44
2023/05/13 08:58:41;;;;;;;6.73;5.90;;;16.80;85.60;;;;;;4970374;28;20526;-45
2023/05/13 09:01:09;;;;;;;7.03;6.43;;;16.80;85.60;;;;;;4970690;28;20525;-44
2023/05/13 09:03:46;;;;;;;7.47;6.70;;;16.80;85.40;;;;;;4966614;28;20455;-45
2023/05/13 09:06:16;;;;;;;7.03;6.43;;;16.80;85.50;;;;;;4969444;28;20505;-45
2023/05/13 09:08:45;;;;;;;6.70;6.10;;;16.80;85.40;;;;;;4967718;28;20502;-44
2023/05/13 09:11:15;;;;;;;6.33;5.73;;;16.80;85.40;;;;;;4965616;28;20553;-43
2023/05/13 09:13:45;;;;;;;6.80;5.83;;;16.80;85.50;;;;;;4972023;28;20458;-45
2023/05/13 09:16:15;;;;;;;6.70;6.10;;;16.80;85.40;;;;;;4986127;28;21055;-45
2023/05/13 09:18:43;;;;;;;5.83;5.23;;;16.80;85.50;;;;;;4970006;28;20435;-45
2023/05/13 09:21:26;;;;;;;5.93;5.43;;;16.90;85.50;;;;;;4969002;28;20447;-46
2023/05/13 09:24:08;;;;;;;6.27;5.77;;;16.90;85.60;;;;;;4968026;28;20843;-44
2023/05/13 09:26:39;;;;;;;5.60;4.97;;;16.80;85.40;;;;;;4968281;28;20471;-45
2023/05/13 09:29:21;;;;;;;6.17;5.57;;;16.90;85.60;;;;;;4970106;28;20479;-45
2023/05/13 09:31:51;;;;;;;7.37;6.77;;;16.90;85.50;;;;;;4969529;28;20471;-45
2023/05/13 09:34:32;;;;;;;8.00;6.10;;;16.90;85.50;;;;;;4969443;28;20514;-45
2023/05/13 09:37:02;;;;;;;7.70;5.87;;;16.90;85.50;;;;;;4969256;28;20475;-43
2023/05/13 09:39:31;;;;;;;5.60;5.00;;;16.90;85.40;;;;;;4985363;28;20436;-43
2023/05/13 09:42:02;;;;;;;6.33;5.80;;;16.80;85.30;;;;;;4968878;28;20514;-45
2023/05/13 09:44:38;;;;;;;6.83;5.80;;;16.80;85.40;;;;;;4974740;28;20449;-45
2023/05/13 09:47:16;;;;;;;10.20;6.37;;;16.80;85.40;;;;;;4966193;28;20493;-45
2023/05/13 09:49:55;;;;;;;6.30;5.70;;;16.90;86.20;;;;;;4971226;28;20470;-45
2023/05/13 09:52:23;;;;;;;6.83;6.17;;;16.90;85.50;;;;;;4979142;28;20474;-45
2023/05/13 09:54:52;;;;;;;6.63;6.13;;;16.90;85.60;;;;;;4972295;28;20501;-45
2023/05/13 09:57:21;;;;;;;6.93;6.30;;;16.90;85.60;;;;;;4969484;28;20487;-46
2023/05/13 09:59:51;;;;;;;7.00;6.17;;;16.90;85.60;;;;;;4968646;28;20518;-45
2023/05/13 10:02:20;;;;;;;7.10;6.50;;;16.90;85.70;;;;;;4984253;28;20483;-45
2023/05/13 10:04:48;;;;;;;6.13;5.53;;;16.90;85.70;;;;;;4970849;28;20518;-45
2023/05/13 10:07:23;;;;;;;6.93;6.30;;;16.90;85.70;;;;;;4964593;28;20483;-44
2023/05/13 10:09:54;;;;;;;8.30;6.83;;;16.80;85.70;;;;;;4969542;28;20489;-44
2023/05/13 10:12:25;;;;;;;6.53;6.03;;;16.90;85.70;;;;;;4977243;28;20565;-44
2023/05/13 10:14:55;;;;;;;6.17;5.57;;;16.90;85.70;;;;;;4968599;28;20455;-44
2023/05/13 10:17:25;;;;;;;8.83;6.17;;;16.90;85.70;;;;;;4965196;28;20483;-44
2023/05/13 10:20:08;;;;;;;7.83;5.10;;;16.80;85.60;;;;;;4970146;28;20450;-44
2023/05/13 10:22:40;;;;;;;6.27;5.67;;;16.90;85.70;;;;;;4969132;28;20486;-44
2023/05/13 10:25:10;;;;;;;5.27;4.87;;;16.90;85.70;;;;;;4971221;28;20455;-44
2023/05/13 10:27:39;;;;;;;6.27;5.77;;;16.90;85.70;;;;;;4967653;28;20920;-44
2023/05/13 10:30:11;;;;;;;6.37;5.73;;;16.90;85.70;;;;;;4965910;28;20542;-44
2023/05/13 10:32:40;;;;;;;6.20;5.60;;;16.90;85.70;;;;;;4969484;28;20475;-44
2023/05/13 10:35:13;;;;;;;7.20;6.30;;;16.90;85.70;;;;;;4970559;28;20475;-44
2023/05/13 10:38:10;;;;;;;6.30;5.70;;;16.90;85.70;;;;;;4969587;28;20863;-45
2023/05/13 10:41:09;;;;;;;6.03;5.53;;;16.90;85.70;;;;;;4942436;28;20451;-44
2023/05/13 10:44:10;;;;;;;5.90;5.43;;;16.90;85.70;;;;;;4969362;28;20450;-45
2023/05/13 10:46:43;;;;;;;6.03;5.30;;;16.90;85.60;;;;;;4973056;28;20862;-46
2023/05/13 10:49:15;;;;;;;7.20;5.30;;;16.90;85.50;;;;;;4969216;28;20996;-46
2023/05/13 10:51:46;;;;;;;7.43;6.73;;;16.90;85.40;;;;;;4968391;28;20553;-45
2023/05/13 10:54:19;;;;;;;6.40;5.80;;;16.90;85.20;;;;;;4968671;28;20451;-46
2023/05/13 10:56:57;;;;;;;7.23;6.27;;;17.00;85.30;;;;;;4966195;28;20510;-44
2023/05/13 10:59:29;;;;;;;8.53;6.57;;;17.10;85.70;;;;;;4957671;28;20447;-43
2023/05/13 11:02:03;;;;;;;6.50;5.90;;;17.00;85.30;;;;;;4970345;28;20477;-43
2023/05/13 11:04:31;;;;;;;6.83;6.13;;;17.00;85.40;;;;;;4968506;28;20952;-45
2023/05/13 11:07:16;;;;;;;7.60;6.90;;;17.00;85.50;;;;;;4968894;28;20851;-43
2023/05/13 11:09:50;;;;;;;7.13;6.53;;;17.00;85.40;;;;;;4970042;28;20466;-43
2023/05/13 11:12:19;;;;;;;6.50;5.90;;;17.00;85.50;;;;;;4969308;28;20474;-43
2023/05/13 11:14:48;;;;;;;7.20;6.40;;;17.00;85.50;;;;;;4968266;28;20945;-44
2023/05/13 11:17:19;;;;;;;6.10;5.50;;;17.00;86.80;;;;;;4965984;28;20831;-44
2023/05/13 11:19:50;;;;;;;6.10;5.60;;;16.90;85.60;;;;;;4968758;28;20446;-45
2023/05/13 11:22:21;;;;;;;7.07;6.47;;;17.00;85.70;;;;;;4951183;28;20503;-44
2023/05/13 11:25:14;;;;;;;6.03;5.53;;;16.90;85.70;;;;;;4969860;28;20546;-44
2023/05/13 11:27:45;;;;;;;8.53;5.53;;;16.90;85.70;;;;;;4971740;28;20489;-43
2023/05/13 11:30:22;;;;;;;6.30;5.63;;;17.00;85.80;;;;;;4964246;28;21008;-43
2023/05/13 11:32:57;;;;;;;7.00;5.50;;;17.00;85.70;;;;;;4968544;28;20983;-44
2023/05/13 11:35:27;;;;;;;6.17;5.57;;;17.00;85.80;;;;;;4966325;28;20545;-44
2023/05/13 11:37:58;;;;;;;6.13;5.50;;;17.00;85.80;;;;;;4968322;28;20474;-43
2023/05/13 11:40:29;;;;;;;5.80;5.30;;;17.00;85.70;;;;;;4972007;28;20439;-43
2023/05/13 11:42:58;;;;;;;5.90;5.40;;;17.00;85.80;;;;;;4999898;28;20454;-43
2023/05/13 11:45:28;;;;;;;6.00;5.40;;;17.00;85.80;;;;;;4977084;28;20455;-46
2023/05/13 11:48:17;;;;;;;9.40;5.60;;;17.00;85.80;;;;;;4981056;28;20546;-44
2023/05/13 11:50:45;;;;;;;5.83;5.33;;;17.00;85.90;;;;;;4965126;28;20479;-45
2023/05/13 11:53:21;;;;;;;6.23;5.03;;;17.00;85.70;;;;;;4978521;28;20455;-45
2023/05/13 11:55:50;;;;;;;6.73;6.00;;;17.00;85.80;;;;;;4968872;28;20782;-44
2023/05/13 11:58:20;;;;;;;5.97;5.37;;;17.00;85.70;;;;;;4965838;28;20447;-43
2023/05/13 12:00:49;;;;;;;6.20;5.60;;;17.00;85.70;;;;;;4980525;28;20445;-44
2023/05/13 12:03:19;;;;;;;5.33;4.93;;;17.10;85.90;;;;;;4981776;28;20444;-45
2023/05/13 12:05:48;;;;;;;5.80;5.20;;;17.00;85.80;;;;;;4971124;28;20910;-44
2023/05/13 12:08:16;;;;;;;5.87;5.37;;;17.00;85.80;;;;;;4967754;28;20926;-44
2023/05/13 12:10:45;;;;;;;5.23;4.83;;;17.10;85.90;;;;;;4968636;28;20534;-46
2023/05/13 12:13:15;;;;;;;6.20;5.20;;;17.00;85.80;;;;;;4970271;28;20450;-45
2023/05/13 12:15:44;;;;;;;7.37;4.90;;;17.00;85.70;;;;;;4971476;28;20820;-44
2023/05/13 12:18:13;;;;;;;5.67;5.13;;;17.10;85.80;;;;;;4984992;28;20979;-45
2023/05/13 12:20:43;;;;;;;5.80;5.20;;;17.10;85.80;;;;;;4972997;28;20785;-44
2023/05/13 12:23:17;;;;;;;6.17;5.63;;;17.10;85.60;;;;;;4970823;28;20533;-44
2023/05/13 12:25:50;;;;;;;5.63;5.13;;;17.20;82.60;;;;;;4980830;28;20448;-45
2023/05/13 12:28:21;;;;;;;6.40;5.80;;;17.20;81.90;;;;;;4967551;28;20844;-44
2023/05/13 12:30:52;;;;;;;5.90;5.30;;;17.20;82.60;;;;;;4984828;28;21906;-43
2023/05/13 12:33:22;;;;;;;5.47;4.97;;;17.20;83.00;;;;;;4972671;28;20453;-43
2023/05/13 12:35:54;;;;;;;6.10;5.53;;;17.20;82.70;;;;;;4970572;28;20455;-42
2023/05/13 12:38:24;;;;;;;5.93;5.23;;;17.20;83.10;;;;;;4963736;28;20447;-45
2023/05/13 12:40:55;;;;;;;6.40;5.47;;;17.20;83.40;;;;;;4972738;28;20493;-45
2023/05/13 12:43:23;;;;;;;6.80;5.83;;;17.10;83.00;;;;;;4971710;28;20619;-45
2023/05/13 12:45:55;;;;;;;6.13;5.57;;;17.10;82.30;;;;;;4974006;28;20431;-44
2023/05/13 12:48:25;;;;;;;5.90;5.30;;;17.10;81.80;;;;;;4972821;28;20755;-45
2023/05/13 12:50:56;;;;;;;5.63;5.13;;;17.10;81.00;;;;;;4971265;28;20942;-44
2023/05/13 12:53:37;;;;;;;5.57;4.10;;;17.10;80.90;;;;;;4980231;28;20447;-45
2023/05/13 12:56:10;;;;;;;5.53;4.90;;;17.10;80.90;;;;;;4986235;28;20462;-44
2023/05/13 12:58:38;;;;;;;5.70;5.20;;;17.10;80.90;;;;;;4985128;28;20503;-44
2023/05/13 13:01:07;;;;;;;6.87;5.17;;;17.00;80.80;;;;;;4988649;28;20427;-45
2023/05/13 13:03:35;;;;;;;6.63;5.67;;;17.10;81.40;;;;;;4971796;28;20460;-43
2023/05/13 13:06:06;;;;;;;5.40;5.00;;;17.10;81.70;;;;;;4971894;28;21031;-45